Time;durP1;ratioP1;P1;durP2;ratioP2;P2;SDS_P1;SDS_P2;PMS_P1;PMS_P2;Temp;Humidity;BMP_temperature;BMP_pressure;BME280_temperature;BME280_humidity;BME280_pressure;Samples;Min_cycle;Max_cycle;Signal;HPM_P1;HPM_P2
2021/05/14 00:01:26;;;;;;;2.00;1.27;;;;;;;11.15;100.00;98186.25;10499700;28;20206;-75
2021/05/14 00:06:49;;;;;;;2.00;1.17;;;;;;;11.21;100.00;98190.84;10502483;28;20198;-75
2021/05/14 00:12:08;;;;;;;1.20;1.03;;;;;;;11.09;100.00;98182.44;10502490;28;20183;-74
2021/05/14 00:17:27;;;;;;;3.60;1.43;;;;;;;11.19;100.00;98186.97;10500781;28;20187;-75
2021/05/14 00:22:46;;;;;;;1.23;1.13;;;;;;;11.14;100.00;98179.22;10501026;28;20178;-74
2021/05/14 00:28:05;;;;;;;1.03;0.93;;;;;;;10.99;100.00;98182.69;10500171;28;20681;-74
2021/05/14 00:33:24;;;;;;;1.20;1.03;;;;;;;10.99;100.00;98179.91;10500338;28;20246;-74
2021/05/14 00:38:43;;;;;;;1.07;0.83;;;;;;;10.93;100.00;98184.38;10500262;28;20250;-74
2021/05/14 00:44:37;;;;;;;1.03;0.83;;;;;;;10.88;100.00;98184.84;10501157;28;20171;-73
2021/05/14 00:49:55;;;;;;;1.60;1.10;;;;;;;10.79;100.00;98184.63;10499021;28;20203;-74
2021/05/14 00:55:15;;;;;;;8.83;1.20;;;;;;;10.78;100.00;98183.88;10500591;28;20178;-74
2021/05/14 01:00:33;;;;;;;1.60;1.13;;;;;;;10.69;100.00;98180.88;10499414;28;20195;-75
2021/05/14 01:05:53;;;;;;;11.40;1.13;;;;;;;10.69;100.00;98175.38;10497838;28;20171;-75
2021/05/14 01:11:12;;;;;;;0.97;0.77;;;;;;;10.63;100.00;98185.31;10499503;28;20209;-74
2021/05/14 01:16:32;;;;;;;1.00;0.60;;;;;;;10.62;100.00;98180.25;10497564;28;20187;-75
2021/05/14 01:21:51;;;;;;;1.40;1.20;;;;;;;10.53;100.00;98183.53;10499550;28;20170;-75
2021/05/14 01:27:10;;;;;;;3.10;1.10;;;;;;;10.56;100.00;98179.16;10499082;28;20283;-75
2021/05/14 01:32:29;;;;;;;1.00;0.70;;;;;;;10.56;100.00;98187.41;10497656;28;20190;-75
2021/05/14 01:37:48;;;;;;;9.07;1.10;;;;;;;10.63;100.00;98184.53;10498876;28;20179;-74
2021/05/14 01:43:07;;;;;;;1.47;1.00;;;;;;;10.52;100.00;98181.22;10498521;28;20166;-75
2021/05/14 01:48:26;;;;;;;1.20;1.10;;;;;;;10.47;100.00;98178.94;10496928;28;20202;-74
2021/05/14 01:53:45;;;;;;;1.00;0.70;;;;;;;10.53;100.00;98178.03;10497322;28;20222;-75
2021/05/14 01:59:04;;;;;;;1.03;0.83;;;;;;;10.52;100.00;98176.47;10498494;28;20675;-74
2021/05/14 02:04:23;;;;;;;1.10;0.70;;;;;;;10.50;100.00;98173.38;10496803;28;20171;-74
2021/05/14 02:09:43;;;;;;;1.40;0.63;;;;;;;10.50;100.00;98170.63;10497545;28;20604;-74
2021/05/14 02:15:02;;;;;;;1.50;1.10;;;;;;;10.45;100.00;98171.13;10497936;28;20174;-74
2021/05/14 02:20:21;;;;;;;1.00;0.80;;;;;;;10.36;100.00;98173.63;10496473;28;20174;-74
2021/05/14 02:25:40;;;;;;;1.00;0.80;;;;;;;10.29;100.00;98167.50;10496264;28;20600;-74
2021/05/14 02:30:59;;;;;;;3.23;1.07;;;;;;;10.31;100.00;98175.31;10495725;28;20247;-74
2021/05/14 02:36:18;;;;;;;2.10;1.13;;;;;;;10.38;100.00;98174.00;10496638;28;20170;-73
2021/05/14 02:41:37;;;;;;;1.43;1.10;;;;;;;10.31;100.00;98178.06;10496180;28;20174;-74
2021/05/14 02:46:56;;;;;;;1.33;0.67;;;;;;;10.22;100.00;98178.59;10495894;28;20656;-74
2021/05/14 02:52:15;;;;;;;1.00;0.83;;;;;;;10.21;100.00;98181.75;10496896;28;20617;-74
2021/05/14 02:57:34;;;;;;;1.53;0.70;;;;;;;10.18;100.00;98174.38;10495991;28;20198;-73
2021/05/14 03:02:54;;;;;;;1.40;0.90;;;;;;;10.15;100.00;98173.22;10494465;28;20174;-75
2021/05/14 03:08:13;;;;;;;1.73;1.03;;;;;;;10.10;100.00;98178.41;10496437;28;20206;-74
2021/05/14 03:13:32;;;;;;;2.13;1.50;;;;;;;10.08;100.00;98186.31;10495326;28;20182;-73
2021/05/14 03:18:51;;;;;;;1.00;0.90;;;;;;;10.01;100.00;98178.19;10493986;28;20183;-74
2021/05/14 03:24:10;;;;;;;1.70;0.80;;;;;;;10.07;100.00;98182.00;10496548;28;20175;-73
2021/05/14 03:29:30;;;;;;;1.40;0.90;;;;;;;9.98;100.00;98179.00;10495790;28;20309;-73
2021/05/14 03:34:49;;;;;;;3.53;1.13;;;;;;;10.03;100.00;98184.81;10495108;28;20202;-73
2021/05/14 03:45:46;;;;;;;0.90;0.70;;;;;;;9.99;100.00;98194.31;10502980;28;20198;-75
2021/05/14 03:51:05;;;;;;;1.00;0.70;;;;;;;9.96;100.00;98187.66;10501261;28;20210;-74
2021/05/14 03:56:25;;;;;;;1.47;0.80;;;;;;;10.08;100.00;98194.56;10502919;28;20182;-75
2021/05/14 04:01:44;;;;;;;1.73;0.93;;;;;;;10.10;100.00;98194.88;10500553;28;20641;-74
2021/05/14 04:07:03;;;;;;;1.40;1.13;;;;;;;10.12;100.00;98195.25;10502579;28;20218;-74
2021/05/14 04:17:57;;;;;;;1.83;1.20;;;;;;;10.03;100.00;98181.28;10500238;28;20189;-75
2021/05/14 04:23:16;;;;;;;1.63;1.47;;;;;;;10.02;100.00;98191.50;10501089;28;20644;-74
2021/05/14 04:28:35;;;;;;;1.00;0.70;;;;;;;10.17;100.00;98190.06;10501339;28;20230;-74
2021/05/14 04:33:57;;;;;;;1.40;0.90;;;;;;;10.17;100.00;98194.81;10499574;28;20201;-75
2021/05/14 04:39:16;;;;;;;1.20;0.60;;;;;;;10.26;100.00;98200.53;10500282;28;20653;-74
2021/05/14 04:44:35;;;;;;;11.27;0.80;;;;;;;10.33;100.00;98201.19;10499975;28;20579;-74
2021/05/14 04:49:54;;;;;;;1.13;0.80;;;;;;;10.25;100.00;98201.72;10499116;28;20202;-74
2021/05/14 04:55:15;;;;;;;1.00;0.73;;;;;;;10.36;100.00;98201.13;10500658;28;20179;-74
2021/05/14 05:00:35;;;;;;;1.10;0.90;;;;;;;10.41;100.00;98200.66;10499485;28;20198;-74
2021/05/14 05:05:53;;;;;;;1.10;0.80;;;;;;;10.44;100.00;98218.28;10498099;28;20179;-74
2021/05/14 05:11:13;;;;;;;1.50;0.90;;;;;;;10.46;100.00;98208.41;10499602;28;20248;-74
2021/05/14 05:16:32;;;;;;;0.80;0.50;;;;;;;10.47;100.00;98206.44;10497607;28;20182;-74
2021/05/14 05:21:51;;;;;;;1.20;1.00;;;;;;;10.58;100.00;98216.03;10498521;28;20533;-73
2021/05/14 05:27:10;;;;;;;0.87;0.57;;;;;;;10.61;100.00;98217.22;10499165;28;20215;-75
2021/05/14 05:32:29;;;;;;;1.00;0.70;;;;;;;10.61;100.00;98222.72;10497712;28;20187;-75
2021/05/14 05:37:48;;;;;;;0.90;0.70;;;;;;;10.63;100.00;98221.09;10497944;28;20170;-74
2021/05/14 05:43:07;;;;;;;1.00;0.70;;;;;;;10.71;100.00;98227.22;10497719;28;20206;-74
2021/05/14 05:48:26;;;;;;;0.90;0.63;;;;;;;10.71;100.00;98233.50;10497154;28;20206;-74
2021/05/14 05:53:45;;;;;;;1.33;1.17;;;;;;;10.74;100.00;98232.66;10496798;28;20178;-74
2021/05/14 05:59:06;;;;;;;0.90;0.67;;;;;;;10.92;100.00;98233.09;10497860;28;20669;-74
2021/05/14 06:04:25;;;;;;;0.97;0.83;;;;;;;11.35;100.00;98239.34;10495850;28;20171;-73
2021/05/14 06:09:43;;;;;;;1.10;0.73;;;;;;;11.63;100.00;98238.81;10497661;28;20211;-73
2021/05/14 06:15:03;;;;;;;1.00;0.83;;;;;;;11.89;100.00;98254.34;10497938;28;20529;-73
2021/05/14 06:20:24;;;;;;;1.20;1.10;;;;;;;11.90;100.00;98255.91;10496290;28;20174;-73
2021/05/14 06:25:43;;;;;;;1.17;0.90;;;;;;;12.00;100.00;98255.66;10497465;28;20190;-73
2021/05/14 06:31:02;;;;;;;1.00;0.83;;;;;;;12.63;100.00;98252.16;10496907;28;20686;-73
2021/05/14 06:36:21;;;;;;;1.40;0.73;;;;;;;13.20;100.00;98243.97;10497355;28;20174;-73
2021/05/14 06:41:40;;;;;;;1.10;0.83;;;;;;;13.43;100.00;98250.03;10496319;28;20206;-73
2021/05/14 06:46:58;;;;;;;0.90;0.57;;;;;;;13.46;100.00;98264.94;10495821;28;20526;-74
2021/05/14 06:52:18;;;;;;;1.60;1.13;;;;;;;13.90;100.00;98262.06;10496029;28;20182;-75
2021/05/14 06:57:37;;;;;;;1.40;1.20;;;;;;;14.11;100.00;98262.22;10497126;28;20281;-74
2021/05/14 07:02:56;;;;;;;1.63;0.80;;;;;;;14.26;99.81;98268.06;10495548;28;20211;-73
2021/05/14 07:08:15;;;;;;;1.20;0.93;;;;;;;14.39;96.59;98270.41;10495338;28;20214;-73
2021/05/14 07:13:34;;;;;;;1.43;0.93;;;;;;;14.61;97.94;98268.50;10499982;28;20182;-74
2021/05/14 07:18:54;;;;;;;1.10;1.00;;;;;;;14.64;95.17;98266.81;10503100;28;20183;-73
2021/05/14 07:24:13;;;;;;;1.10;0.90;;;;;;;14.97;87.85;98279.16;10504403;28;20534;-74
2021/05/14 07:29:32;;;;;;;1.10;0.90;;;;;;;15.07;87.70;98275.25;10503361;28;20222;-74
2021/05/14 07:34:55;;;;;;;2.10;1.37;;;;;;;15.16;88.28;98265.03;10502616;28;20185;-73
2021/05/14 07:40:14;;;;;;;1.70;1.50;;;;;;;15.64;92.14;98267.25;10502496;28;20558;-73
2021/05/14 07:45:33;;;;;;;1.20;0.90;;;;;;;15.91;81.08;98265.47;10502442;28;20170;-73
2021/05/14 07:50:53;;;;;;;1.10;0.90;;;;;;;15.75;84.67;98273.97;10500311;28;20206;-74
2021/05/14 07:56:12;;;;;;;1.03;0.93;;;;;;;16.03;82.24;98270.91;10503028;28;20277;-74
2021/05/14 08:01:31;;;;;;;1.00;0.70;;;;;;;16.20;66.82;98274.97;10501757;28;20182;-74
2021/05/14 08:06:51;;;;;;;1.00;0.70;;;;;;;16.77;64.42;98272.31;10502544;28;20258;-74
2021/05/14 08:12:10;;;;;;;1.23;0.83;;;;;;;17.09;62.38;98271.75;10502538;28;20179;-76
2021/05/14 08:17:29;;;;;;;1.20;1.07;;;;;;;16.66;63.23;98273.19;10500849;28;20167;-74
2021/05/14 08:22:49;;;;;;;1.03;0.80;;;;;;;17.36;61.36;98271.78;10501585;28;20171;-75
2021/05/14 08:28:08;;;;;;;1.43;0.97;;;;;;;16.72;59.77;98274.16;10500311;28;20234;-74
2021/05/14 08:33:27;;;;;;;1.10;0.77;;;;;;;16.53;57.88;98273.31;10500317;28;20175;-75
2021/05/14 08:38:46;;;;;;;2.20;1.10;;;;;;;17.63;58.21;98271.75;10500215;28;20207;-75
2021/05/14 08:44:06;;;;;;;0.90;0.70;;;;;;;17.82;49.31;98267.72;10501342;28;20179;-76
2021/05/14 08:49:25;;;;;;;1.10;0.70;;;;;;;18.16;48.72;98270.13;10499356;28;20199;-76
2021/05/14 08:54:46;;;;;;;2.37;1.13;;;;;;;18.48;48.20;98273.72;10500666;28;20281;-76
2021/05/14 09:00:08;;;;;;;1.20;0.80;;;;;;;17.92;49.21;98277.59;10499739;28;20656;-76
2021/05/14 09:05:32;;;;;;;1.00;0.70;;;;;;;18.33;48.12;98274.88;10498884;28;20636;-76
2021/05/14 09:10:51;;;;;;;1.17;0.83;;;;;;;18.37;47.31;98261.56;10499602;28;20576;-76
2021/05/14 09:16:11;;;;;;;1.20;0.70;;;;;;;17.89;46.25;98275.75;10498693;28;20537;-76
2021/05/14 09:21:30;;;;;;;1.10;0.70;;;;;;;18.27;47.49;98271.19;10499684;28;20586;-77
2021/05/14 09:26:48;;;;;;;0.93;0.63;;;;;;;18.79;47.25;98263.03;10498329;28;20218;-76
2021/05/14 09:32:19;;;;;;;0.93;0.70;;;;;;;18.11;47.45;98271.53;10482837;28;20179;-74
2021/05/14 09:37:45;;;;;;;0.90;0.60;;;;;;;18.78;45.91;98275.44;10497151;28;20649;-74
2021/05/14 09:43:05;;;;;;;1.00;0.77;;;;;;;19.22;49.17;98262.50;10498649;28;20183;-75
2021/05/14 09:48:27;;;;;;;4.83;0.90;;;;;;;18.78;46.38;98266.31;10496071;28;20237;-76
2021/05/14 09:53:46;;;;;;;1.67;0.90;;;;;;;18.10;49.74;98266.41;10498297;28;20629;-75
2021/05/14 09:59:06;;;;;;;2.07;0.87;;;;;;;17.95;48.03;98263.53;10498234;28;20174;-75
2021/05/14 10:04:27;;;;;;;0.90;0.53;;;;;;;19.13;44.86;98267.34;10496813;28;20206;-75
2021/05/14 10:09:50;;;;;;;0.97;0.70;;;;;;;17.72;48.07;98257.84;10497535;28;20202;-74
2021/05/14 10:15:11;;;;;;;0.90;0.60;;;;;;;17.61;49.41;98266.66;10496831;28;20244;-74
2021/05/14 10:20:32;;;;;;;1.07;0.67;;;;;;;18.16;46.18;98264.53;10496324;28;20174;-75
2021/05/14 10:25:53;;;;;;;0.97;0.70;;;;;;;18.34;43.82;98270.06;10497337;28;20206;-76
2021/05/14 10:31:17;;;;;;;1.27;0.67;;;;;;;18.77;45.22;98265.53;10495830;28;20668;-76
2021/05/14 10:36:41;;;;;;;1.00;0.70;;;;;;;18.52;47.03;98254.81;10496398;28;20175;-75
2021/05/14 10:42:07;;;;;;;1.17;0.70;;;;;;;19.08;45.41;98251.25;10497159;28;20644;-74
2021/05/14 10:47:26;;;;;;;1.03;0.80;;;;;;;19.02;48.23;98256.69;10499921;28;20660;-77
2021/05/14 10:53:28;;;;;;;1.13;0.80;;;;;;;18.30;46.58;98258.34;10504618;28;20200;-75
2021/05/14 10:59:02;;;;;;;0.90;0.50;;;;;;;18.47;44.21;98257.47;10505310;28;20187;-76
2021/05/14 11:04:42;;;;;;;0.90;0.60;;;;;;;18.82;42.97;98256.50;10503705;28;20183;-75
2021/05/14 11:10:13;;;;;;;1.60;0.70;;;;;;;18.47;44.16;98255.47;10503463;28;20203;-76
2021/05/14 11:15:35;;;;;;;1.30;0.80;;;;;;;18.60;44.25;98249.69;10503619;28;20175;-76
2021/05/14 11:20:56;;;;;;;0.97;0.60;;;;;;;18.31;46.11;98254.31;10501995;28;20175;-76
2021/05/14 11:26:19;;;;;;;1.00;0.70;;;;;;;17.73;45.37;98243.47;10502914;28;20313;-76
2021/05/14 11:31:38;;;;;;;1.30;0.70;;;;;;;17.68;44.85;98257.25;10501960;28;20318;-76
2021/05/14 11:36:57;;;;;;;0.90;0.60;;;;;;;17.38;45.22;98260.19;10502829;28;20179;-76
2021/05/14 11:42:25;;;;;;;0.90;0.60;;;;;;;17.23;46.56;98259.25;10503443;28;20175;-75
2021/05/14 11:47:52;;;;;;;0.90;0.50;;;;;;;17.32;49.77;98260.03;10501979;28;20672;-75
2021/05/14 11:53:12;;;;;;;1.00;0.60;;;;;;;17.22;47.92;98268.81;10503052;28;20190;-74
2021/05/14 11:58:31;;;;;;;1.00;0.60;;;;;;;17.02;48.74;98262.91;10502084;28;20555;-74
2021/05/14 12:03:56;;;;;;;1.10;0.70;;;;;;;17.14;47.37;98264.78;10501706;28;20209;-74
2021/05/14 12:09:16;;;;;;;0.90;0.57;;;;;;;17.46;46.54;98264.22;10501083;28;20668;-74
2021/05/14 12:14:35;;;;;;;1.03;0.77;;;;;;;18.16;46.86;98262.53;10502322;28;20613;-74
2021/05/14 12:19:54;;;;;;;0.90;0.67;;;;;;;19.38;43.28;98253.69;10499897;28;20179;-75
2021/05/14 12:25:14;;;;;;;0.97;0.60;;;;;;;19.53;43.81;98260.06;10501062;28;20261;-76
2021/05/14 12:30:39;;;;;;;0.90;0.73;;;;;;;18.92;44.37;98260.78;10500059;28;20234;-76
2021/05/14 12:36:05;;;;;;;1.10;0.70;;;;;;;18.97;44.11;98268.50;10500284;28;20175;-75
2021/05/14 12:41:30;;;;;;;0.90;0.60;;;;;;;19.13;42.19;98273.69;10501410;28;20178;-75
2021/05/14 12:46:56;;;;;;;1.20;0.73;;;;;;;20.22;42.30;98259.06;10499801;28;20182;-75
2021/05/14 12:52:27;;;;;;;1.00;0.60;;;;;;;20.25;39.25;98258.09;10500944;28;20179;-76
2021/05/14 12:57:56;;;;;;;1.00;0.87;;;;;;;19.73;42.59;98265.75;10500645;28;20175;-76
2021/05/14 13:03:27;;;;;;;0.90;0.60;;;;;;;19.30;43.71;98264.41;10499112;28;20175;-75
2021/05/14 13:08:46;;;;;;;1.00;0.70;;;;;;;19.81;44.83;98256.53;10499080;28;20211;-75
2021/05/14 13:14:08;;;;;;;0.90;0.60;;;;;;;20.78;44.64;98260.72;10499948;28;20664;-76
2021/05/14 13:19:27;;;;;;;1.00;0.80;;;;;;;22.00;42.68;98252.03;10498415;28;20246;-76
2021/05/14 13:24:46;;;;;;;0.90;0.63;;;;;;;21.24;39.74;98257.53;10499484;28;20171;-76
2021/05/14 13:30:07;;;;;;;1.30;0.80;;;;;;;21.42;40.51;98246.03;10498641;28;20222;-76
2021/05/14 13:35:26;;;;;;;2.83;1.00;;;;;;;21.97;40.14;98244.59;10497868;28;20179;-76
2021/05/14 13:40:45;;;;;;;1.00;0.63;;;;;;;21.25;39.07;98247.88;10498949;28;20204;-76
2021/05/14 13:46:05;;;;;;;0.90;0.50;;;;;;;21.48;40.55;98248.91;10498796;28;20171;-75
2021/05/14 13:51:24;;;;;;;0.90;0.50;;;;;;;20.99;45.25;98243.47;10497575;28;20556;-75
2021/05/14 13:56:42;;;;;;;1.10;0.90;;;;;;;21.11;39.46;98254.31;10498357;28;20653;-75
2021/05/14 14:02:03;;;;;;;0.90;0.60;;;;;;;20.39;40.59;98242.56;10496911;28;20258;-76
2021/05/14 14:07:22;;;;;;;1.00;0.60;;;;;;;19.24;42.93;98249.59;10497806;28;20281;-75
2021/05/14 14:12:42;;;;;;;1.00;0.80;;;;;;;19.55;44.50;98249.16;10497896;28;20202;-75
2021/05/14 14:18:02;;;;;;;2.37;0.80;;;;;;;18.77;50.99;98239.69;10496631;28;20163;-75
2021/05/14 14:23:21;;;;;;;2.90;1.40;;;;;;;18.45;50.05;98232.13;10497554;28;20179;-74
2021/05/14 14:28:40;;;;;;;1.00;0.60;;;;;;;19.54;44.68;98234.47;10496891;28;20313;-75
2021/05/14 14:33:59;;;;;;;2.20;0.80;;;;;;;19.87;47.52;98228.72;10495461;28;20175;-75
2021/05/14 14:39:18;;;;;;;1.83;0.70;;;;;;;19.16;49.00;98224.56;10496910;28;20171;-76
2021/05/14 14:44:37;;;;;;;1.00;0.70;;;;;;;19.44;47.76;98229.44;10496718;28;20186;-76
2021/05/14 14:49:56;;;;;;;4.07;0.87;;;;;;;18.54;47.89;98230.06;10494978;28;20238;-75
2021/05/14 14:55:15;;;;;;;0.90;0.60;;;;;;;18.67;49.40;98227.81;10496247;28;20187;-75
2021/05/14 15:00:34;;;;;;;1.00;0.80;;;;;;;19.31;47.93;98221.34;10496005;28;20210;-76
2021/05/14 15:05:54;;;;;;;1.53;1.43;;;;;;;19.81;45.80;98220.25;10494902;28;20175;-77
2021/05/14 15:11:13;;;;;;;3.33;2.30;;;;;;;18.90;45.21;98213.09;10496134;28;20293;-77
2021/05/14 15:16:32;;;;;;;6.00;3.80;;;;;;;18.73;44.13;98225.94;10495143;28;20622;-77
2021/05/14 15:21:51;;;;;;;3.60;1.83;;;;;;;19.08;44.23;98207.41;10496303;28;20202;-76
2021/05/14 15:27:10;;;;;;;1.00;0.90;;;;;;;20.95;45.92;98210.13;10494354;28;20264;-76
2021/05/14 15:32:29;;;;;;;1.87;1.00;;;;;;;21.19;42.97;98198.72;10495376;28;20186;-78
2021/05/14 15:37:48;;;;;;;1.27;0.90;;;;;;;20.60;42.83;98197.41;10503165;28;20187;-76
2021/05/14 15:43:08;;;;;;;1.73;1.47;;;;;;;19.96;45.29;98214.66;10502858;28;20174;-77
2021/05/14 15:48:27;;;;;;;1.60;1.23;;;;;;;20.43;44.03;98207.59;10501148;28;20202;-78
2021/05/14 15:53:46;;;;;;;2.50;1.70;;;;;;;20.31;44.07;98211.47;10502438;28;20202;-77
2021/05/14 15:59:04;;;;;;;2.43;2.23;;;;;;;20.25;41.81;98213.41;10502758;28;20212;-76
2021/05/14 16:04:23;;;;;;;1.13;0.87;;;;;;;19.99;42.69;98214.47;10501691;28;20171;-76
2021/05/14 16:09:42;;;;;;;1.17;0.70;;;;;;;19.65;43.36;98215.13;10502299;28;20202;-76
2021/05/14 16:15:03;;;;;;;1.20;1.00;;;;;;;19.46;45.58;98210.97;10501363;28;20179;-77
2021/05/14 16:20:33;;;;;;;1.03;0.73;;;;;;;18.94;47.85;98208.13;10500746;28;20250;-77
2021/05/14 16:25:55;;;;;;;1.10;0.80;;;;;;;18.99;47.07;98207.47;10501624;28;20641;-77
2021/05/14 16:31:15;;;;;;;1.50;0.70;;;;;;;19.23;50.34;98201.91;10501190;28;20716;-76
2021/05/14 16:36:33;;;;;;;0.90;0.60;;;;;;;19.85;46.72;98192.13;10501555;28;20190;-77
2021/05/14 16:41:52;;;;;;;1.00;0.63;;;;;;;20.58;44.66;98187.97;10501391;28;20279;-77
2021/05/14 16:47:11;;;;;;;0.90;0.50;;;;;;;20.49;43.31;98193.69;10499526;28;20179;-77
2021/05/14 16:52:30;;;;;;;2.97;2.67;;;;;;;20.16;44.51;98182.78;10500730;28;20206;-77
2021/05/14 16:57:51;;;;;;;1.57;1.47;;;;;;;20.13;43.88;98189.34;10500670;28;20629;-77
2021/05/14 17:03:10;;;;;;;6.73;3.60;;;;;;;19.98;45.28;98195.44;10499017;28;20178;-76
2021/05/14 17:08:32;;;;;;;1.10;0.90;;;;;;;19.97;46.92;98196.66;10498978;28;20214;-76
2021/05/14 17:13:51;;;;;;;1.17;0.70;;;;;;;21.82;40.34;98193.56;10500042;28;20183;-76
2021/05/14 17:19:10;;;;;;;1.20;0.70;;;;;;;23.81;35.84;98186.53;10498500;28;20166;-77
2021/05/14 17:24:30;;;;;;;0.90;0.50;;;;;;;24.29;34.90;98184.22;10499433;28;20254;-77
2021/05/14 17:29:49;;;;;;;0.90;0.60;;;;;;;22.98;34.65;98189.53;10498653;28;20258;-76
2021/05/14 17:35:08;;;;;;;3.43;1.50;;;;;;;21.28;39.65;98196.50;10497923;28;20566;-77
2021/05/14 17:40:27;;;;;;;1.30;0.90;;;;;;;20.82;40.14;98208.94;10498793;28;20224;-76
2021/05/14 17:45:47;;;;;;;3.00;0.70;;;;;;;21.73;39.53;98207.72;10498744;28;20206;-76
2021/05/14 17:51:06;;;;;;;1.00;0.70;;;;;;;20.24;42.23;98208.28;10496411;28;20214;-76
2021/05/14 17:56:25;;;;;;;0.90;0.50;;;;;;;18.98;44.99;98214.28;10497863;28;20182;-76
2021/05/14 18:01:44;;;;;;;1.20;0.80;;;;;;;17.77;49.39;98221.03;10496885;28;21134;-77
2021/05/14 18:07:03;;;;;;;1.50;0.90;;;;;;;17.11;52.06;98229.59;10498180;28;20178;-77
2021/05/14 18:12:22;;;;;;;1.67;1.03;;;;;;;16.89;53.82;98226.94;10497838;28;20182;-76
2021/05/14 18:17:42;;;;;;;1.27;1.17;;;;;;;16.86;55.65;98243.75;10495578;28;20178;-76
2021/05/14 18:23:02;;;;;;;1.10;0.60;;;;;;;16.79;55.83;98236.50;10497701;28;20644;-76
2021/05/14 18:28:20;;;;;;;1.00;0.70;;;;;;;16.68;53.88;98240.19;10497188;28;20226;-75
2021/05/14 18:33:40;;;;;;;7.97;3.37;;;;;;;16.54;54.92;98246.31;10495298;28;20170;-76
2021/05/14 18:38:59;;;;;;;2.20;1.10;;;;;;;16.43;55.59;98246.75;10497494;28;20183;-76
2021/05/14 18:44:18;;;;;;;1.20;0.93;;;;;;;16.20;57.35;98244.47;10496413;28;20179;-76
2021/05/14 18:49:37;;;;;;;1.10;0.70;;;;;;;15.82;60.08;98262.63;10495516;28;20206;-76
2021/05/14 18:54:56;;;;;;;1.40;0.80;;;;;;;15.64;61.98;98265.28;10497070;28;20589;-75
2021/05/14 19:00:16;;;;;;;1.00;0.70;;;;;;;15.58;62.90;98275.41;10496901;28;20174;-76
2021/05/14 19:05:36;;;;;;;1.40;0.73;;;;;;;15.45;64.06;98279.47;10494720;28;20590;-75
2021/05/14 19:10:56;;;;;;;1.03;0.90;;;;;;;15.29;65.23;98272.09;10503290;28;20202;-75
2021/05/14 19:16:15;;;;;;;1.00;0.60;;;;;;;15.05;67.11;98283.22;10503698;28;20219;-75
2021/05/14 19:21:50;;;;;;;1.53;1.40;;;;;;;14.83;68.08;98296.25;10503337;28;20528;-75
2021/05/14 19:49:40;;;;;;;0.90;0.60;;;;;;;14.50;67.86;98323.41;10501862;28;20628;-75
2021/05/14 19:54:59;;;;;;;1.00;0.80;;;;;;;14.45;67.71;98320.44;10502221;28;20186;-74
2021/05/14 20:00:19;;;;;;;1.10;0.77;;;;;;;14.34;68.48;98342.13;10503183;28;20178;-75
2021/05/14 20:05:39;;;;;;;2.03;1.20;;;;;;;14.24;68.95;98345.22;10500759;28;20170;-74
2021/05/14 20:10:58;;;;;;;4.07;0.73;;;;;;;14.01;70.20;98356.53;10501124;28;20210;-76
2021/05/14 20:16:17;;;;;;;1.50;0.70;;;;;;;13.82;71.75;98349.94;10501208;28;20250;-75
2021/05/14 20:21:36;;;;;;;1.77;0.80;;;;;;;13.70;72.78;98353.47;10501638;28;20195;-75
2021/05/14 20:26:56;;;;;;;1.00;0.70;;;;;;;13.51;72.89;98364.66;10500903;28;20218;-75
2021/05/14 20:32:15;;;;;;;1.00;0.83;;;;;;;13.28;73.97;98369.63;10499569;28;20212;-76
2021/05/14 20:37:37;;;;;;;1.80;1.63;;;;;;;13.06;76.01;98363.84;10500476;28;20178;-76
2021/05/14 20:42:56;;;;;;;0.93;0.73;;;;;;;12.93;76.44;98365.78;10500392;28;20175;-76
2021/05/14 20:48:15;;;;;;;1.00;0.80;;;;;;;12.77;78.06;98367.72;10499551;28;20206;-76
2021/05/14 20:53:35;;;;;;;1.27;0.97;;;;;;;12.61;78.37;98384.25;10499971;28;20195;-76
2021/05/14 20:58:54;;;;;;;1.10;0.70;;;;;;;12.50;78.07;98392.00;10500664;28;20175;-76
2021/05/14 21:04:13;;;;;;;0.90;0.70;;;;;;;12.44;78.46;98393.69;10499240;28;20175;-75
2021/05/14 21:09:32;;;;;;;1.17;0.80;;;;;;;12.27;80.08;98399.63;10498587;28;20210;-75
2021/05/14 21:14:52;;;;;;;1.03;0.60;;;;;;;12.15;81.45;98395.53;10500198;28;20175;-76
2021/05/14 21:20:12;;;;;;;1.90;0.70;;;;;;;12.00;82.58;98408.06;10498513;28;20170;-76
2021/05/14 21:25:32;;;;;;;0.90;0.60;;;;;;;11.91;83.74;98403.53;10499846;28;20524;-76
2021/05/14 21:30:51;;;;;;;1.20;0.83;;;;;;;11.80;84.75;98405.69;10498129;28;20222;-76
2021/05/14 21:36:11;;;;;;;1.00;0.70;;;;;;;11.70;86.09;98401.19;10497970;28;20222;-75
2021/05/14 21:41:30;;;;;;;1.00;0.67;;;;;;;11.54;88.40;98403.88;10499140;28;20178;-76
2021/05/14 21:46:49;;;;;;;0.90;0.60;;;;;;;11.28;93.43;98415.69;10497416;28;20183;-76
2021/05/14 21:52:08;;;;;;;1.03;0.73;;;;;;;11.11;94.99;98414.78;10498015;28;20218;-75
2021/05/14 21:57:27;;;;;;;1.10;0.90;;;;;;;10.90;98.96;98421.84;10483288;28;20182;-76
2021/05/14 22:02:46;;;;;;;1.10;0.60;;;;;;;10.87;97.34;98423.47;10497142;28;20186;-75
2021/05/14 22:08:05;;;;;;;1.50;0.70;;;;;;;10.84;97.76;98424.28;10498308;28;20268;-75
2021/05/14 22:13:24;;;;;;;1.07;0.70;;;;;;;10.88;96.78;98421.47;10498213;28;20193;-77
2021/05/14 22:18:43;;;;;;;1.60;1.13;;;;;;;10.87;95.56;98415.19;10495869;28;20587;-74
2021/05/14 22:24:02;;;;;;;0.90;0.60;;;;;;;10.82;95.53;98423.16;10497841;28;20182;-75
2021/05/14 22:29:21;;;;;;;1.20;0.60;;;;;;;10.77;98.04;98424.41;10497094;28;20234;-75
2021/05/14 22:34:46;;;;;;;1.00;0.90;;;;;;;10.70;100.00;98424.50;10496267;28;20616;-74
2021/05/14 22:40:06;;;;;;;1.50;1.20;;;;;;;10.56;100.00;98410.97;10496400;28;20179;-74
2021/05/14 22:45:25;;;;;;;1.00;0.70;;;;;;;10.52;100.00;98412.22;10509332;28;20270;-76
2021/05/14 22:50:46;;;;;;;1.57;1.10;;;;;;;10.55;100.00;98409.41;10508220;28;20664;-74
2021/05/14 22:56:05;;;;;;;1.10;0.50;;;;;;;10.51;100.00;98405.91;10511206;28;20621;-75
2021/05/14 23:01:24;;;;;;;1.27;0.90;;;;;;;10.55;100.00;98408.59;10510541;28;20178;-75
2021/05/14 23:06:43;;;;;;;2.43;0.87;;;;;;;10.52;100.00;98404.72;10509367;28;20266;-75
2021/05/14 23:12:02;;;;;;;1.20;0.97;;;;;;;10.61;100.00;98409.72;10509001;28;20202;-76
2021/05/14 23:17:22;;;;;;;0.80;0.50;;;;;;;10.65;100.00;98405.72;10507986;28;20233;-74
2021/05/14 23:22:42;;;;;;;0.90;0.60;;;;;;;10.75;100.00;98402.00;10509362;28;20541;-76
2021/05/14 23:28:01;;;;;;;1.60;0.93;;;;;;;10.77;100.00;98399.63;10508903;28;20222;-75
2021/05/14 23:33:20;;;;;;;1.10;0.60;;;;;;;10.94;100.00;98403.31;10508947;28;20258;-77
2021/05/14 23:38:39;;;;;;;0.80;0.50;;;;;;;10.91;100.00;98404.13;10509371;28;20187;-75
2021/05/14 23:43:58;;;;;;;2.83;0.80;;;;;;;10.95;100.00;98397.38;10509152;28;20178;-75
2021/05/14 23:49:17;;;;;;;2.23;1.10;;;;;;;10.87;100.00;98401.44;10506955;28;20214;-76
2021/05/14 23:54:36;;;;;;;1.40;1.20;;;;;;;10.82;100.00;98399.19;10505604;28;20183;-75
2021/05/14 23:59:55;;;;;;;0.90;0.60;;;;;;;10.80;100.00;98401.56;10502176;28;20214;-75
